sensor_id;sensor_type;location;lat;lon;timestamp;P1;durP1;ratioP1;P2;durP2;ratioP2
58015;SDS011;43809;52.110;20.964;2023-11-21T00:01:34;15.30;;;8.23;;
58015;SDS011;43809;52.110;20.964;2023-11-21T00:03:35;15.05;;;8.80;;
58015;SDS011;43809;52.110;20.964;2023-11-21T00:05:36;12.85;;;7.85;;
58015;SDS011;43809;52.110;20.964;2023-11-21T00:07:37;13.85;;;8.02;;
58015;SDS011;43809;52.110;20.964;2023-11-21T00:09:38;13.40;;;8.35;;
58015;SDS011;43809;52.110;20.964;2023-11-21T00:11:38;12.43;;;7.18;;
58015;SDS011;43809;52.110;20.964;2023-11-21T00:13:39;11.02;;;7.18;;
58015;SDS011;43809;52.110;20.964;2023-11-21T00:15:40;14.20;;;8.27;;
58015;SDS011;43809;52.110;20.964;2023-11-21T00:17:41;13.95;;;7.60;;
58015;SDS011;43809;52.110;20.964;2023-11-21T00:19:43;11.23;;;6.90;;
58015;SDS011;43809;52.110;20.964;2023-11-21T00:21:43;12.15;;;7.28;;
58015;SDS011;43809;52.110;20.964;2023-11-21T00:23:45;10.00;;;6.85;;
58015;SDS011;43809;52.110;20.964;2023-11-21T00:25:47;12.43;;;7.10;;
58015;SDS011;43809;52.110;20.964;2023-11-21T00:27:48;18.70;;;10.25;;
58015;SDS011;43809;52.110;20.964;2023-11-21T00:29:49;14.57;;;8.23;;
58015;SDS011;43809;52.110;20.964;2023-11-21T00:31:49;12.20;;;6.82;;
58015;SDS011;43809;52.110;20.964;2023-11-21T00:33:50;10.52;;;5.97;;
58015;SDS011;43809;52.110;20.964;2023-11-21T00:35:51;9.50;;;5.55;;
58015;SDS011;43809;52.110;20.964;2023-11-21T00:37:58;13.65;;;7.47;;
58015;SDS011;43809;52.110;20.964;2023-11-21T00:39:59;16.08;;;8.10;;
58015;SDS011;43809;52.110;20.964;2023-11-21T00:42:02;13.20;;;7.93;;
58015;SDS011;43809;52.110;20.964;2023-11-21T00:44:03;17.42;;;8.98;;
58015;SDS011;43809;52.110;20.964;2023-11-21T00:46:07;13.93;;;7.10;;
58015;SDS011;43809;52.110;20.964;2023-11-21T00:48:08;12.75;;;7.25;;
58015;SDS011;43809;52.110;20.964;2023-11-21T00:50:09;11.82;;;6.93;;
58015;SDS011;43809;52.110;20.964;2023-11-21T00:52:10;14.82;;;8.48;;
58015;SDS011;43809;52.110;20.964;2023-11-21T00:54:11;15.20;;;8.10;;
58015;SDS011;43809;52.110;20.964;2023-11-21T00:56:12;14.60;;;7.80;;
58015;SDS011;43809;52.110;20.964;2023-11-21T00:58:13;17.80;;;8.87;;
58015;SDS011;43809;52.110;20.964;2023-11-21T01:00:15;16.38;;;9.05;;
58015;SDS011;43809;52.110;20.964;2023-11-21T01:02:17;17.20;;;9.50;;
58015;SDS011;43809;52.110;20.964;2023-11-21T01:04:18;17.83;;;9.40;;
58015;SDS011;43809;52.110;20.964;2023-11-21T01:06:19;18.83;;;9.93;;
58015;SDS011;43809;52.110;20.964;2023-11-21T01:08:20;19.50;;;9.88;;
58015;SDS011;43809;52.110;20.964;2023-11-21T01:10:23;17.13;;;8.98;;
58015;SDS011;43809;52.110;20.964;2023-11-21T01:12:23;18.23;;;9.30;;
58015;SDS011;43809;52.110;20.964;2023-11-21T01:14:25;17.92;;;8.95;;
58015;SDS011;43809;52.110;20.964;2023-11-21T01:16:27;22.93;;;11.73;;
58015;SDS011;43809;52.110;20.964;2023-11-21T01:18:28;18.20;;;9.18;;
58015;SDS011;43809;52.110;20.964;2023-11-21T01:20:29;16.13;;;8.88;;
58015;SDS011;43809;52.110;20.964;2023-11-21T01:22:30;17.95;;;9.00;;
58015;SDS011;43809;52.110;20.964;2023-11-21T01:24:31;19.63;;;9.98;;
58015;SDS011;43809;52.110;20.964;2023-11-21T01:26:32;22.77;;;11.57;;
58015;SDS011;43809;52.110;20.964;2023-11-21T01:28:32;22.58;;;10.95;;
58015;SDS011;43809;52.110;20.964;2023-11-21T01:30:36;22.13;;;11.48;;
58015;SDS011;43809;52.110;20.964;2023-11-21T01:32:38;18.55;;;10.13;;
58015;SDS011;43809;52.110;20.964;2023-11-21T01:34:39;17.83;;;9.68;;
58015;SDS011;43809;52.110;20.964;2023-11-21T01:36:40;19.85;;;9.27;;
58015;SDS011;43809;52.110;20.964;2023-11-21T01:38:41;19.02;;;10.05;;
58015;SDS011;43809;52.110;20.964;2023-11-21T01:40:42;18.30;;;9.75;;
58015;SDS011;43809;52.110;20.964;2023-11-21T01:42:43;20.10;;;10.32;;
58015;SDS011;43809;52.110;20.964;2023-11-21T01:44:44;18.63;;;8.35;;
58015;SDS011;43809;52.110;20.964;2023-11-21T01:46:45;16.33;;;7.68;;
58015;SDS011;43809;52.110;20.964;2023-11-21T01:48:48;20.58;;;10.88;;
58015;SDS011;43809;52.110;20.964;2023-11-21T01:50:50;25.77;;;11.68;;
58015;SDS011;43809;52.110;20.964;2023-11-21T01:52:51;23.63;;;10.07;;
58015;SDS011;43809;52.110;20.964;2023-11-21T01:54:53;19.70;;;9.75;;
58015;SDS011;43809;52.110;20.964;2023-11-21T01:56:54;19.02;;;10.00;;
58015;SDS011;43809;52.110;20.964;2023-11-21T01:58:55;17.48;;;9.18;;
58015;SDS011;43809;52.110;20.964;2023-11-21T02:00:55;17.15;;;8.73;;
58015;SDS011;43809;52.110;20.964;2023-11-21T02:05:43;19.55;;;10.00;;
58015;SDS011;43809;52.110;20.964;2023-11-21T02:07:46;16.80;;;8.98;;
58015;SDS011;43809;52.110;20.964;2023-11-21T02:09:51;18.27;;;9.13;;
58015;SDS011;43809;52.110;20.964;2023-11-21T02:11:52;19.92;;;10.07;;
58015;SDS011;43809;52.110;20.964;2023-11-21T02:18:20;19.73;;;10.60;;
58015;SDS011;43809;52.110;20.964;2023-11-21T02:20:22;20.92;;;10.70;;
58015;SDS011;43809;52.110;20.964;2023-11-21T02:22:26;20.75;;;10.82;;
58015;SDS011;43809;52.110;20.964;2023-11-21T02:24:31;22.08;;;11.70;;
58015;SDS011;43809;52.110;20.964;2023-11-21T02:26:32;17.83;;;9.70;;
58015;SDS011;43809;52.110;20.964;2023-11-21T02:28:33;19.17;;;9.75;;
58015;SDS011;43809;52.110;20.964;2023-11-21T02:30:34;17.88;;;9.93;;
58015;SDS011;43809;52.110;20.964;2023-11-21T02:32:35;20.58;;;10.85;;
58015;SDS011;43809;52.110;20.964;2023-11-21T02:34:35;22.77;;;11.50;;
58015;SDS011;43809;52.110;20.964;2023-11-21T02:36:36;18.92;;;10.25;;
58015;SDS011;43809;52.110;20.964;2023-11-21T02:38:37;18.80;;;10.63;;
58015;SDS011;43809;52.110;20.964;2023-11-21T02:40:38;24.55;;;12.85;;
58015;SDS011;43809;52.110;20.964;2023-11-21T02:42:39;24.38;;;12.48;;
58015;SDS011;43809;52.110;20.964;2023-11-21T02:44:40;26.17;;;13.07;;
58015;SDS011;43809;52.110;20.964;2023-11-21T02:46:42;23.90;;;13.00;;
58015;SDS011;43809;52.110;20.964;2023-11-21T02:48:42;20.58;;;11.52;;
58015;SDS011;43809;52.110;20.964;2023-11-21T02:50:43;22.80;;;12.10;;
58015;SDS011;43809;52.110;20.964;2023-11-21T02:55:08;22.38;;;11.77;;
58015;SDS011;43809;52.110;20.964;2023-11-21T02:57:08;23.17;;;12.55;;
58015;SDS011;43809;52.110;20.964;2023-11-21T02:59:09;21.17;;;10.70;;
58015;SDS011;43809;52.110;20.964;2023-11-21T03:01:10;25.75;;;12.85;;
58015;SDS011;43809;52.110;20.964;2023-11-21T03:03:11;20.25;;;11.45;;
58015;SDS011;43809;52.110;20.964;2023-11-21T03:05:12;20.80;;;11.10;;
58015;SDS011;43809;52.110;20.964;2023-11-21T03:07:13;23.30;;;12.82;;
58015;SDS011;43809;52.110;20.964;2023-11-21T03:09:14;23.35;;;11.40;;
58015;SDS011;43809;52.110;20.964;2023-11-21T03:11:16;23.58;;;12.35;;
58015;SDS011;43809;52.110;20.964;2023-11-21T03:13:16;19.43;;;11.80;;
58015;SDS011;43809;52.110;20.964;2023-11-21T03:15:17;18.23;;;9.75;;
58015;SDS011;43809;52.110;20.964;2023-11-21T03:17:18;20.88;;;11.82;;
58015;SDS011;43809;52.110;20.964;2023-11-21T03:19:19;17.38;;;9.45;;
58015;SDS011;43809;52.110;20.964;2023-11-21T03:21:20;18.90;;;9.75;;
58015;SDS011;43809;52.110;20.964;2023-11-21T03:23:20;17.75;;;10.50;;
58015;SDS011;43809;52.110;20.964;2023-11-21T03:25:34;17.17;;;10.50;;
58015;SDS011;43809;52.110;20.964;2023-11-21T03:27:35;17.60;;;10.27;;
58015;SDS011;43809;52.110;20.964;2023-11-21T03:29:36;15.88;;;8.82;;
58015;SDS011;43809;52.110;20.964;2023-11-21T03:31:37;15.80;;;8.38;;
58015;SDS011;43809;52.110;20.964;2023-11-21T03:33:37;13.35;;;7.90;;
58015;SDS011;43809;52.110;20.964;2023-11-21T03:35:38;14.90;;;9.15;;
58015;SDS011;43809;52.110;20.964;2023-11-21T03:37:45;14.45;;;8.65;;
58015;SDS011;43809;52.110;20.964;2023-11-21T03:39:46;15.68;;;8.85;;
58015;SDS011;43809;52.110;20.964;2023-11-21T03:41:47;17.13;;;10.10;;
58015;SDS011;43809;52.110;20.964;2023-11-21T03:43:48;17.15;;;9.77;;
58015;SDS011;43809;52.110;20.964;2023-11-21T03:45:49;15.63;;;9.23;;
58015;SDS011;43809;52.110;20.964;2023-11-21T03:47:51;18.15;;;10.50;;
58015;SDS011;43809;52.110;20.964;2023-11-21T03:49:52;15.82;;;9.07;;
58015;SDS011;43809;52.110;20.964;2023-11-21T03:51:52;16.63;;;9.00;;
58015;SDS011;43809;52.110;20.964;2023-11-21T03:53:53;14.15;;;8.85;;
58015;SDS011;43809;52.110;20.964;2023-11-21T03:58:02;14.90;;;8.85;;
58015;SDS011;43809;52.110;20.964;2023-11-21T04:00:03;13.77;;;8.40;;
58015;SDS011;43809;52.110;20.964;2023-11-21T04:02:12;14.55;;;8.43;;
58015;SDS011;43809;52.110;20.964;2023-11-21T04:04:13;15.07;;;9.20;;
58015;SDS011;43809;52.110;20.964;2023-11-21T04:06:14;17.52;;;10.18;;
58015;SDS011;43809;52.110;20.964;2023-11-21T04:10:35;14.20;;;8.13;;
58015;SDS011;43809;52.110;20.964;2023-11-21T04:12:36;16.35;;;9.27;;
58015;SDS011;43809;52.110;20.964;2023-11-21T04:14:36;15.73;;;9.40;;
58015;SDS011;43809;52.110;20.964;2023-11-21T04:16:37;15.43;;;9.50;;
58015;SDS011;43809;52.110;20.964;2023-11-21T04:18:38;14.38;;;8.52;;
58015;SDS011;43809;52.110;20.964;2023-11-21T04:20:39;14.18;;;7.95;;
58015;SDS011;43809;52.110;20.964;2023-11-21T04:22:40;15.40;;;9.00;;
58015;SDS011;43809;52.110;20.964;2023-11-21T04:24:44;15.30;;;8.88;;
58015;SDS011;43809;52.110;20.964;2023-11-21T04:26:44;16.08;;;9.52;;
58015;SDS011;43809;52.110;20.964;2023-11-21T04:28:45;18.73;;;9.82;;
58015;SDS011;43809;52.110;20.964;2023-11-21T04:30:46;15.88;;;8.98;;
58015;SDS011;43809;52.110;20.964;2023-11-21T04:32:48;17.60;;;9.00;;
58015;SDS011;43809;52.110;20.964;2023-11-21T04:34:49;17.17;;;10.10;;
58015;SDS011;43809;52.110;20.964;2023-11-21T04:36:51;16.55;;;9.57;;
58015;SDS011;43809;52.110;20.964;2023-11-21T04:38:52;16.88;;;9.63;;
58015;SDS011;43809;52.110;20.964;2023-11-21T04:40:52;16.63;;;8.90;;
58015;SDS011;43809;52.110;20.964;2023-11-21T04:42:53;17.77;;;9.48;;
58015;SDS011;43809;52.110;20.964;2023-11-21T04:44:54;16.05;;;9.25;;
58015;SDS011;43809;52.110;20.964;2023-11-21T04:46:55;16.00;;;8.85;;
58015;SDS011;43809;52.110;20.964;2023-11-21T04:48:56;17.10;;;9.50;;
58015;SDS011;43809;52.110;20.964;2023-11-21T04:50:57;16.88;;;9.93;;
58015;SDS011;43809;52.110;20.964;2023-11-21T04:52:58;17.08;;;10.15;;
58015;SDS011;43809;52.110;20.964;2023-11-21T04:54:59;18.67;;;10.10;;
58015;SDS011;43809;52.110;20.964;2023-11-21T04:59:02;19.27;;;8.30;;
58015;SDS011;43809;52.110;20.964;2023-11-21T05:01:03;16.67;;;9.00;;
58015;SDS011;43809;52.110;20.964;2023-11-21T05:03:04;13.00;;;8.60;;
58015;SDS011;43809;52.110;20.964;2023-11-21T05:05:06;15.33;;;8.23;;
58015;SDS011;43809;52.110;20.964;2023-11-21T05:07:08;16.83;;;9.25;;
58015;SDS011;43809;52.110;20.964;2023-11-21T05:09:09;13.70;;;7.65;;
58015;SDS011;43809;52.110;20.964;2023-11-21T05:11:12;13.80;;;8.25;;
58015;SDS011;43809;52.110;20.964;2023-11-21T05:13:13;14.38;;;7.90;;
58015;SDS011;43809;52.110;20.964;2023-11-21T05:15:32;14.68;;;8.60;;
58015;SDS011;43809;52.110;20.964;2023-11-21T05:17:33;13.40;;;8.02;;
58015;SDS011;43809;52.110;20.964;2023-11-21T05:19:35;19.25;;;9.30;;
58015;SDS011;43809;52.110;20.964;2023-11-21T05:21:36;16.98;;;9.40;;
58015;SDS011;43809;52.110;20.964;2023-11-21T05:23:37;13.68;;;7.90;;
58015;SDS011;43809;52.110;20.964;2023-11-21T05:25:38;13.73;;;7.75;;
58015;SDS011;43809;52.110;20.964;2023-11-21T05:30:25;14.38;;;8.18;;
58015;SDS011;43809;52.110;20.964;2023-11-21T05:32:26;14.13;;;8.32;;
58015;SDS011;43809;52.110;20.964;2023-11-21T05:34:27;14.95;;;7.78;;
58015;SDS011;43809;52.110;20.964;2023-11-21T05:36:28;9.95;;;6.07;;
58015;SDS011;43809;52.110;20.964;2023-11-21T05:38:29;14.82;;;8.02;;
58015;SDS011;43809;52.110;20.964;2023-11-21T05:40:30;13.10;;;7.22;;
58015;SDS011;43809;52.110;20.964;2023-11-21T05:42:31;11.95;;;7.35;;
58015;SDS011;43809;52.110;20.964;2023-11-21T05:44:32;11.18;;;6.88;;
58015;SDS011;43809;52.110;20.964;2023-11-21T05:46:33;11.45;;;6.75;;
58015;SDS011;43809;52.110;20.964;2023-11-21T05:48:33;11.35;;;7.03;;
58015;SDS011;43809;52.110;20.964;2023-11-21T05:50:34;11.75;;;6.65;;
58015;SDS011;43809;52.110;20.964;2023-11-21T05:52:36;13.35;;;7.32;;
58015;SDS011;43809;52.110;20.964;2023-11-21T05:54:37;12.65;;;7.32;;
58015;SDS011;43809;52.110;20.964;2023-11-21T05:56:38;11.98;;;6.70;;
58015;SDS011;43809;52.110;20.964;2023-11-21T05:58:39;11.68;;;6.25;;
58015;SDS011;43809;52.110;20.964;2023-11-21T06:00:40;9.13;;;6.40;;
58015;SDS011;43809;52.110;20.964;2023-11-21T06:05:24;12.20;;;7.28;;
58015;SDS011;43809;52.110;20.964;2023-11-21T06:07:25;10.20;;;6.13;;
58015;SDS011;43809;52.110;20.964;2023-11-21T06:09:25;14.02;;;7.32;;
58015;SDS011;43809;52.110;20.964;2023-11-21T06:13:47;14.90;;;7.90;;
58015;SDS011;43809;52.110;20.964;2023-11-21T06:15:48;13.23;;;7.78;;
58015;SDS011;43809;52.110;20.964;2023-11-21T06:17:55;10.80;;;7.25;;
58015;SDS011;43809;52.110;20.964;2023-11-21T06:19:56;12.10;;;6.93;;
58015;SDS011;43809;52.110;20.964;2023-11-21T06:21:57;11.10;;;7.15;;
58015;SDS011;43809;52.110;20.964;2023-11-21T06:23:57;11.02;;;6.50;;
58015;SDS011;43809;52.110;20.964;2023-11-21T06:25:58;9.68;;;5.93;;
58015;SDS011;43809;52.110;20.964;2023-11-21T06:27:59;10.70;;;6.47;;
58015;SDS011;43809;52.110;20.964;2023-11-21T06:30:00;11.32;;;6.75;;
58015;SDS011;43809;52.110;20.964;2023-11-21T06:32:00;10.07;;;6.05;;
58015;SDS011;43809;52.110;20.964;2023-11-21T06:34:03;12.55;;;7.72;;
58015;SDS011;43809;52.110;20.964;2023-11-21T06:36:04;9.95;;;6.47;;
58015;SDS011;43809;52.110;20.964;2023-11-21T06:38:06;8.10;;;5.28;;
58015;SDS011;43809;52.110;20.964;2023-11-21T06:40:13;9.70;;;6.20;;
58015;SDS011;43809;52.110;20.964;2023-11-21T06:42:19;11.35;;;6.78;;
58015;SDS011;43809;52.110;20.964;2023-11-21T06:44:19;12.70;;;6.38;;
58015;SDS011;43809;52.110;20.964;2023-11-21T06:46:20;10.82;;;6.68;;
58015;SDS011;43809;52.110;20.964;2023-11-21T06:48:21;10.55;;;6.03;;
58015;SDS011;43809;52.110;20.964;2023-11-21T06:50:22;10.68;;;6.95;;
58015;SDS011;43809;52.110;20.964;2023-11-21T06:52:22;10.48;;;6.00;;
58015;SDS011;43809;52.110;20.964;2023-11-21T06:54:24;10.25;;;5.88;;
58015;SDS011;43809;52.110;20.964;2023-11-21T06:56:25;6.90;;;5.38;;
58015;SDS011;43809;52.110;20.964;2023-11-21T06:58:26;9.13;;;6.18;;
58015;SDS011;43809;52.110;20.964;2023-11-21T07:00:26;10.07;;;6.45;;
58015;SDS011;43809;52.110;20.964;2023-11-21T07:02:30;13.18;;;7.43;;
58015;SDS011;43809;52.110;20.964;2023-11-21T07:04:31;13.85;;;7.75;;
58015;SDS011;43809;52.110;20.964;2023-11-21T07:06:32;12.27;;;7.03;;
58015;SDS011;43809;52.110;20.964;2023-11-21T07:08:33;9.75;;;6.75;;
58015;SDS011;43809;52.110;20.964;2023-11-21T07:10:34;11.00;;;7.15;;
58015;SDS011;43809;52.110;20.964;2023-11-21T07:12:37;10.82;;;6.70;;
58015;SDS011;43809;52.110;20.964;2023-11-21T07:14:37;11.13;;;6.50;;
58015;SDS011;43809;52.110;20.964;2023-11-21T07:18:50;10.75;;;6.35;;
58015;SDS011;43809;52.110;20.964;2023-11-21T07:20:51;9.38;;;6.10;;
58015;SDS011;43809;52.110;20.964;2023-11-21T07:22:52;11.52;;;6.85;;
58015;SDS011;43809;52.110;20.964;2023-11-21T07:24:53;9.98;;;6.38;;
58015;SDS011;43809;52.110;20.964;2023-11-21T07:26:54;11.32;;;6.28;;
58015;SDS011;43809;52.110;20.964;2023-11-21T07:30:57;11.15;;;6.05;;
58015;SDS011;43809;52.110;20.964;2023-11-21T07:33:01;9.63;;;5.88;;
58015;SDS011;43809;52.110;20.964;2023-11-21T07:35:02;9.93;;;6.45;;
58015;SDS011;43809;52.110;20.964;2023-11-21T07:37:03;9.32;;;5.75;;
58015;SDS011;43809;52.110;20.964;2023-11-21T07:39:04;10.32;;;5.97;;
58015;SDS011;43809;52.110;20.964;2023-11-21T07:41:23;10.05;;;5.68;;
58015;SDS011;43809;52.110;20.964;2023-11-21T07:43:24;10.45;;;5.75;;
58015;SDS011;43809;52.110;20.964;2023-11-21T07:45:25;10.88;;;6.32;;
58015;SDS011;43809;52.110;20.964;2023-11-21T07:47:28;10.13;;;6.85;;
58015;SDS011;43809;52.110;20.964;2023-11-21T07:49:28;10.70;;;6.35;;
58015;SDS011;43809;52.110;20.964;2023-11-21T07:51:29;10.40;;;5.80;;
58015;SDS011;43809;52.110;20.964;2023-11-21T07:56:02;11.55;;;6.80;;
58015;SDS011;43809;52.110;20.964;2023-11-21T07:58:03;10.13;;;6.10;;
58015;SDS011;43809;52.110;20.964;2023-11-21T08:00:05;8.95;;;5.93;;
58015;SDS011;43809;52.110;20.964;2023-11-21T08:02:12;11.25;;;7.13;;
58015;SDS011;43809;52.110;20.964;2023-11-21T08:04:13;11.15;;;6.90;;
58015;SDS011;43809;52.110;20.964;2023-11-21T08:06:14;11.38;;;7.47;;
58015;SDS011;43809;52.110;20.964;2023-11-21T08:10:19;12.25;;;6.63;;
58015;SDS011;43809;52.110;20.964;2023-11-21T08:12:21;12.90;;;6.75;;
58015;SDS011;43809;52.110;20.964;2023-11-21T08:14:22;10.32;;;6.25;;
58015;SDS011;43809;52.110;20.964;2023-11-21T08:16:22;7.55;;;5.10;;
58015;SDS011;43809;52.110;20.964;2023-11-21T08:18:24;8.63;;;5.40;;
58015;SDS011;43809;52.110;20.964;2023-11-21T08:22:38;7.82;;;5.20;;
58015;SDS011;43809;52.110;20.964;2023-11-21T08:26:55;10.05;;;5.00;;
58015;SDS011;43809;52.110;20.964;2023-11-21T08:28:57;8.52;;;5.78;;
58015;SDS011;43809;52.110;20.964;2023-11-21T08:31:03;12.40;;;6.45;;
58015;SDS011;43809;52.110;20.964;2023-11-21T08:33:08;10.85;;;5.88;;
58015;SDS011;43809;52.110;20.964;2023-11-21T08:35:12;9.50;;;5.93;;
58015;SDS011;43809;52.110;20.964;2023-11-21T08:37:14;8.82;;;5.25;;
58015;SDS011;43809;52.110;20.964;2023-11-21T08:39:17;10.65;;;5.43;;
58015;SDS011;43809;52.110;20.964;2023-11-21T08:41:22;9.45;;;5.35;;
58015;SDS011;43809;52.110;20.964;2023-11-21T08:43:36;9.82;;;5.93;;
58015;SDS011;43809;52.110;20.964;2023-11-21T08:45:42;8.43;;;5.00;;
58015;SDS011;43809;52.110;20.964;2023-11-21T08:47:49;11.48;;;7.00;;
58015;SDS011;43809;52.110;20.964;2023-11-21T08:49:51;9.18;;;6.00;;
58015;SDS011;43809;52.110;20.964;2023-11-21T08:51:57;9.15;;;5.43;;
58015;SDS011;43809;52.110;20.964;2023-11-21T08:56:05;9.75;;;5.65;;
58015;SDS011;43809;52.110;20.964;2023-11-21T08:58:06;10.93;;;6.20;;
58015;SDS011;43809;52.110;20.964;2023-11-21T09:00:09;8.52;;;5.05;;
58015;SDS011;43809;52.110;20.964;2023-11-21T09:02:16;8.55;;;5.60;;
58015;SDS011;43809;52.110;20.964;2023-11-21T09:04:17;10.20;;;5.63;;
58015;SDS011;43809;52.110;20.964;2023-11-21T09:06:17;12.32;;;7.30;;
58015;SDS011;43809;52.110;20.964;2023-11-21T09:08:19;10.43;;;6.30;;
58015;SDS011;43809;52.110;20.964;2023-11-21T09:10:22;10.35;;;6.40;;
58015;SDS011;43809;52.110;20.964;2023-11-21T09:12:25;9.73;;;5.82;;
58015;SDS011;43809;52.110;20.964;2023-11-21T09:14:26;9.05;;;5.25;;
58015;SDS011;43809;52.110;20.964;2023-11-21T09:16:27;11.60;;;6.75;;
58015;SDS011;43809;52.110;20.964;2023-11-21T09:18:28;10.35;;;6.32;;
58015;SDS011;43809;52.110;20.964;2023-11-21T09:20:29;9.55;;;6.45;;
58015;SDS011;43809;52.110;20.964;2023-11-21T09:22:29;9.55;;;5.53;;
58015;SDS011;43809;52.110;20.964;2023-11-21T09:24:32;8.63;;;5.75;;
58015;SDS011;43809;52.110;20.964;2023-11-21T09:26:33;9.25;;;5.63;;
58015;SDS011;43809;52.110;20.964;2023-11-21T09:28:33;11.05;;;6.13;;
58015;SDS011;43809;52.110;20.964;2023-11-21T09:30:35;10.27;;;5.68;;
58015;SDS011;43809;52.110;20.964;2023-11-21T09:32:46;11.52;;;6.53;;
58015;SDS011;43809;52.110;20.964;2023-11-21T09:34:48;11.13;;;6.55;;
58015;SDS011;43809;52.110;20.964;2023-11-21T09:36:48;14.05;;;6.60;;
58015;SDS011;43809;52.110;20.964;2023-11-21T09:38:50;8.98;;;6.05;;
58015;SDS011;43809;52.110;20.964;2023-11-21T09:40:51;9.82;;;6.47;;
58015;SDS011;43809;52.110;20.964;2023-11-21T09:42:56;11.25;;;6.88;;
58015;SDS011;43809;52.110;20.964;2023-11-21T09:46:59;11.98;;;7.00;;
58015;SDS011;43809;52.110;20.964;2023-11-21T09:49:00;14.55;;;8.15;;
58015;SDS011;43809;52.110;20.964;2023-11-21T09:51:05;12.85;;;8.00;;
58015;SDS011;43809;52.110;20.964;2023-11-21T09:55:15;11.23;;;7.43;;
58015;SDS011;43809;52.110;20.964;2023-11-21T09:57:19;13.73;;;7.32;;
58015;SDS011;43809;52.110;20.964;2023-11-21T09:59:22;15.02;;;8.70;;
58015;SDS011;43809;52.110;20.964;2023-11-21T10:01:26;11.63;;;7.55;;
58015;SDS011;43809;52.110;20.964;2023-11-21T10:03:27;14.85;;;8.93;;
58015;SDS011;43809;52.110;20.964;2023-11-21T10:05:28;12.82;;;7.80;;
58015;SDS011;43809;52.110;20.964;2023-11-21T10:07:30;11.70;;;7.20;;
58015;SDS011;43809;52.110;20.964;2023-11-21T10:09:31;15.93;;;8.77;;
58015;SDS011;43809;52.110;20.964;2023-11-21T10:11:32;13.65;;;8.32;;
58015;SDS011;43809;52.110;20.964;2023-11-21T10:13:34;13.90;;;8.10;;
58015;SDS011;43809;52.110;20.964;2023-11-21T10:15:35;12.45;;;7.53;;
58015;SDS011;43809;52.110;20.964;2023-11-21T10:17:45;11.90;;;7.30;;
58015;SDS011;43809;52.110;20.964;2023-11-21T10:19:46;13.88;;;7.55;;
58015;SDS011;43809;52.110;20.964;2023-11-21T10:21:48;14.10;;;7.75;;
58015;SDS011;43809;52.110;20.964;2023-11-21T10:23:48;14.35;;;8.77;;
58015;SDS011;43809;52.110;20.964;2023-11-21T10:25:51;15.57;;;8.35;;
58015;SDS011;43809;52.110;20.964;2023-11-21T10:27:57;12.82;;;7.45;;
58015;SDS011;43809;52.110;20.964;2023-11-21T10:29:58;14.13;;;8.32;;
58015;SDS011;43809;52.110;20.964;2023-11-21T10:32:03;13.73;;;8.40;;
58015;SDS011;43809;52.110;20.964;2023-11-21T10:34:14;13.38;;;7.90;;
58015;SDS011;43809;52.110;20.964;2023-11-21T10:36:24;12.85;;;7.90;;
58015;SDS011;43809;52.110;20.964;2023-11-21T10:38:26;13.35;;;8.68;;
58015;SDS011;43809;52.110;20.964;2023-11-21T10:40:29;11.77;;;8.07;;
58015;SDS011;43809;52.110;20.964;2023-11-21T10:42:29;14.43;;;8.27;;
58015;SDS011;43809;52.110;20.964;2023-11-21T10:44:33;12.18;;;7.65;;
58015;SDS011;43809;52.110;20.964;2023-11-21T10:46:34;15.57;;;8.52;;
58015;SDS011;43809;52.110;20.964;2023-11-21T10:48:35;11.75;;;7.35;;
58015;SDS011;43809;52.110;20.964;2023-11-21T10:50:36;13.73;;;7.97;;
58015;SDS011;43809;52.110;20.964;2023-11-21T10:52:39;11.82;;;7.80;;
58015;SDS011;43809;52.110;20.964;2023-11-21T10:54:39;14.63;;;8.43;;
58015;SDS011;43809;52.110;20.964;2023-11-21T10:56:40;13.02;;;7.63;;
58015;SDS011;43809;52.110;20.964;2023-11-21T10:58:43;11.80;;;7.57;;
58015;SDS011;43809;52.110;20.964;2023-11-21T11:00:44;11.15;;;7.72;;
58015;SDS011;43809;52.110;20.964;2023-11-21T11:02:52;14.48;;;8.35;;
58015;SDS011;43809;52.110;20.964;2023-11-21T11:04:56;13.20;;;7.78;;
58015;SDS011;43809;52.110;20.964;2023-11-21T11:06:57;15.85;;;8.55;;
58015;SDS011;43809;52.110;20.964;2023-11-21T11:09:01;13.55;;;7.18;;
58015;SDS011;43809;52.110;20.964;2023-11-21T11:11:04;12.27;;;7.95;;
58015;SDS011;43809;52.110;20.964;2023-11-21T11:13:06;12.43;;;7.68;;
58015;SDS011;43809;52.110;20.964;2023-11-21T11:15:08;11.27;;;7.07;;
58015;SDS011;43809;52.110;20.964;2023-11-21T11:17:11;14.48;;;8.32;;
58015;SDS011;43809;52.110;20.964;2023-11-21T11:19:13;20.00;;;9.75;;
58015;SDS011;43809;52.110;20.964;2023-11-21T11:23:32;14.70;;;8.88;;
58015;SDS011;43809;52.110;20.964;2023-11-21T11:25:45;13.32;;;8.27;;
58015;SDS011;43809;52.110;20.964;2023-11-21T11:28:04;13.85;;;8.38;;
58015;SDS011;43809;52.110;20.964;2023-11-21T11:30:11;13.25;;;7.30;;
58015;SDS011;43809;52.110;20.964;2023-11-21T11:34:41;13.70;;;8.05;;
58015;SDS011;43809;52.110;20.964;2023-11-21T11:36:44;15.35;;;8.85;;
58015;SDS011;43809;52.110;20.964;2023-11-21T11:38:48;12.93;;;7.43;;
58015;SDS011;43809;52.110;20.964;2023-11-21T11:40:53;10.38;;;6.53;;
58015;SDS011;43809;52.110;20.964;2023-11-21T11:43:00;15.00;;;8.93;;
58015;SDS011;43809;52.110;20.964;2023-11-21T11:45:16;14.05;;;7.85;;
58015;SDS011;43809;52.110;20.964;2023-11-21T11:47:21;13.63;;;7.13;;
58015;SDS011;43809;52.110;20.964;2023-11-21T11:49:27;14.88;;;8.02;;
58015;SDS011;43809;52.110;20.964;2023-11-21T11:51:28;14.88;;;8.40;;
58015;SDS011;43809;52.110;20.964;2023-11-21T11:53:33;12.40;;;8.10;;
58015;SDS011;43809;52.110;20.964;2023-11-21T11:55:35;12.88;;;7.53;;
58015;SDS011;43809;52.110;20.964;2023-11-21T11:57:36;12.90;;;8.00;;
58015;SDS011;43809;52.110;20.964;2023-11-21T12:01:56;15.20;;;8.40;;
58015;SDS011;43809;52.110;20.964;2023-11-21T12:06:34;14.10;;;8.77;;
58015;SDS011;43809;52.110;20.964;2023-11-21T12:08:35;14.38;;;8.32;;
58015;SDS011;43809;52.110;20.964;2023-11-21T12:10:37;17.38;;;8.85;;
58015;SDS011;43809;52.110;20.964;2023-11-21T12:12:41;16.37;;;9.73;;
58015;SDS011;43809;52.110;20.964;2023-11-21T12:14:41;13.55;;;8.48;;
58015;SDS011;43809;52.110;20.964;2023-11-21T12:16:42;15.52;;;9.07;;
58015;SDS011;43809;52.110;20.964;2023-11-21T12:18:45;14.55;;;8.07;;
58015;SDS011;43809;52.110;20.964;2023-11-21T12:20:46;10.98;;;7.25;;
58015;SDS011;43809;52.110;20.964;2023-11-21T12:22:53;14.77;;;8.60;;
58015;SDS011;43809;52.110;20.964;2023-11-21T12:24:54;14.27;;;8.20;;
58015;SDS011;43809;52.110;20.964;2023-11-21T12:26:55;13.25;;;7.45;;
58015;SDS011;43809;52.110;20.964;2023-11-21T12:28:55;11.25;;;7.32;;
58015;SDS011;43809;52.110;20.964;2023-11-21T12:30:56;13.73;;;7.97;;
58015;SDS011;43809;52.110;20.964;2023-11-21T12:32:58;12.35;;;7.30;;
58015;SDS011;43809;52.110;20.964;2023-11-21T12:34:59;13.73;;;7.83;;
58015;SDS011;43809;52.110;20.964;2023-11-21T12:37:01;10.80;;;7.03;;
58015;SDS011;43809;52.110;20.964;2023-11-21T12:39:02;12.48;;;7.32;;
58015;SDS011;43809;52.110;20.964;2023-11-21T12:41:03;15.03;;;8.93;;
58015;SDS011;43809;52.110;20.964;2023-11-21T12:43:06;16.35;;;9.10;;
58015;SDS011;43809;52.110;20.964;2023-11-21T12:45:08;15.52;;;9.10;;
58015;SDS011;43809;52.110;20.964;2023-11-21T12:47:16;14.07;;;8.20;;